Terminal Aerodrome Forecast
Issued by NWS

Home | Current Version | Previous Version | Text Only | Print | Product List | Glossary On
Versions: 1 2 3 4 5 6 7 8 9 10 11 12 13
000
FTUS45 KABQ 261141
TAFLVS
TAF
KLVS 261141Z 2612/2712 25016KT P6SM FEW080
     FM261500 31015G25KT P6SM FEW080
     FM270000 03011KT P6SM SCT250
     FM270400 VRB06KT P6SM SCT200=

USA.gov is the U.S. government's official web portal to all federal, state and local government web resources and services.